Humidity-temperature Sensor

Selected Measurement Type: Air Temperature

 
Air Temperature [°C]     6 entries per hour
Showing data from 4/29/2022 (00:00:00 Z) to 4/28/2022 (00:01:00 Z)
Previous Next [ Day | 3-Days | 7-Days ]
First Last
Prev [ Day | 3-Days | 7-Days ] Next
First Last

Start Time:     :
End Time:     :     
Time (in GMT) :00 :50 :40 :30 :20 :10
Previous Next [ Day | 3-Days | 7-Days ]
First Last
Prev [ Day | 3-Days | 7-Days ] Next
First Last


123 => good data
MM => data is determined as missing
-- => data not received/configured
Back to Top Back to Top
4/29/2022 00:00 to 23:10 26.09 25.88 26.11 25.96 25.80 25.84
4/28/2022 23:00 to 22:10 25.89 26.00 25.61 25.85 25.80 25.75
4/28/2022 22:00 to 21:10 25.90 25.96 26.16 26.09 25.87 25.94
4/28/2022 21:00 to 20:10 25.87 26.15 26.37 26.74 26.62 26.67
4/28/2022 20:00 to 19:10 26.62 26.48 26.62 26.38 26.39 26.51
4/28/2022 19:00 to 18:10 26.28 26.37 26.15 26.17 26.23 26.31
4/28/2022 18:00 to 17:10 26.51 26.33 26.33 26.43 26.19 26.17
4/28/2022 17:00 to 16:10 26.18 26.17 26.16 26.07 25.79 25.56
4/28/2022 16:00 to 15:10 25.46 25.49 25.30 25.35 25.41 25.35
4/28/2022 15:00 to 14:10 25.51 25.35 25.12 25.05 25.07 24.87
4/28/2022 14:00 to 13:10 24.95 24.72 24.71 24.83 24.88 24.99
4/28/2022 13:00 to 12:10 24.95 24.98 24.59 24.84 24.91 25.03
4/28/2022 12:00 to 11:10 24.87 24.87 25.00 25.03 25.21 25.45
4/28/2022 11:00 to 10:10 25.45 25.70 25.72 25.94 25.90 25.81
4/28/2022 10:00 to 9:10 26.02 26.03 25.99 25.97 25.97 26.03
4/28/2022 09:00 to 8:10 25.88 26.13 26.28 26.16 26.16 26.47
4/28/2022 08:00 to 7:10 26.43 26.43 26.26 26.31 26.31 26.43
4/28/2022 07:00 to 6:10 26.48 26.78 26.58 26.61 26.29 26.43
4/28/2022 06:00 to 5:10 26.79 26.69 26.62 26.39 25.28 25.73
4/28/2022 05:00 to 4:10 26.11 26.17 26.04 26.15 26.29 26.30
4/28/2022 04:00 to 3:10 26.42 26.31 26.18 26.10 26.29 26.20
4/28/2022 03:00 to 2:10 26.40 26.89 26.75 26.79 26.78 26.66
4/28/2022 02:00 to 1:10 26.69 26.53 26.41 26.31 26.42 26.25
4/28/2022 01:00 to 0:10 26.50 26.33 25.77 26.24 25.97 25.99